sensor_id;sensor_type;location;lat;lon;timestamp;pressure;altitude;pressure_sealevel;temperature;humidity
39443;BME280;25147;52.142;9.960;2023-07-09T00:02:42;100803.75;;;18.53;82.78
39443;BME280;25147;52.142;9.960;2023-07-09T00:05:15;100759.13;;;18.21;83.14
39443;BME280;25147;52.142;9.960;2023-07-09T00:08:03;100813.28;;;18.36;82.76
39443;BME280;25147;52.142;9.960;2023-07-09T00:10:44;100880.72;;;18.72;82.38
39443;BME280;25147;52.142;9.960;2023-07-09T00:13:56;100679.84;;;17.52;82.53
39443;BME280;25147;52.142;9.960;2023-07-09T00:17:00;100651.03;;;17.24;83.35
39443;BME280;25147;52.142;9.960;2023-07-09T00:19:49;100916.03;;;18.94;83.74
39443;BME280;25147;52.142;9.960;2023-07-09T00:35:13;100661.53;;;17.25;83.66
39443;BME280;25147;52.142;9.960;2023-07-09T00:38:11;100683.44;;;17.29;83.31
39443;BME280;25147;52.142;9.960;2023-07-09T00:41:21;100678.78;;;17.14;83.78
39443;BME280;25147;52.142;9.960;2023-07-09T00:47:11;100937.09;;;18.77;84.82
39443;BME280;25147;52.142;9.960;2023-07-09T00:51:07;100651.69;;;17.07;84.45
39443;BME280;25147;52.142;9.960;2023-07-09T00:54:06;100822.53;;;18.06;84.54
39443;BME280;25147;52.142;9.960;2023-07-09T00:56:54;100936.06;;;18.59;84.97
39443;BME280;25147;52.142;9.960;2023-07-09T00:59:41;100941.44;;;18.57;86.84
39443;BME280;25147;52.142;9.960;2023-07-09T01:05:38;100617.59;;;16.76;88.40
39443;BME280;25147;52.142;9.960;2023-07-09T01:08:39;100925.72;;;18.53;88.72
39443;BME280;25147;52.142;9.960;2023-07-09T01:11:44;100647.59;;;16.75;87.31
39443;BME280;25147;52.142;9.960;2023-07-09T01:14:50;100779.81;;;17.69;88.48
39443;BME280;25147;52.142;9.960;2023-07-09T01:18:08;100942.88;;;18.44;89.20
39443;BME280;25147;52.142;9.960;2023-07-09T01:40:32;100963.44;;;18.15;87.79
39443;BME280;25147;52.142;9.960;2023-07-09T01:43:14;100936.94;;;18.15;87.78
39443;BME280;25147;52.142;9.960;2023-07-09T01:45:55;100963.44;;;18.15;87.61
39443;BME280;25147;52.142;9.960;2023-07-09T01:48:34;100617.41;;;16.35;87.61
39443;BME280;25147;52.142;9.960;2023-07-09T01:54:15;100571.78;;;16.06;87.37
39443;BME280;25147;52.142;9.960;2023-07-09T02:00:29;100762.34;;;16.96;86.77
39443;BME280;25147;52.142;9.960;2023-07-09T02:03:10;100802.19;;;17.38;87.33
39443;BME280;25147;52.142;9.960;2023-07-09T02:06:46;100932.13;;;18.03;87.07
39443;BME280;25147;52.142;9.960;2023-07-09T02:09:57;100719.59;;;16.83;86.72
39443;BME280;25147;52.142;9.960;2023-07-09T02:12:42;100593.75;;;16.07;86.72
39443;BME280;25147;52.142;9.960;2023-07-09T02:15:27;100782.69;;;17.17;86.82
39443;BME280;25147;52.142;9.960;2023-07-09T02:18:30;100930.66;;;17.96;87.46
39443;BME280;25147;52.142;9.960;2023-07-09T02:21:20;100649.78;;;16.16;87.32
39443;BME280;25147;52.142;9.960;2023-07-09T02:24:25;100816.13;;;17.20;88.42
39443;BME280;25147;52.142;9.960;2023-07-09T02:27:07;100651.03;;;16.30;89.15
39443;BME280;25147;52.142;9.960;2023-07-09T02:29:58;100926.63;;;17.86;88.63
39443;BME280;25147;52.142;9.960;2023-07-09T02:33:28;100639.13;;;15.93;88.20
39443;BME280;25147;52.142;9.960;2023-07-09T02:39:12;100857.59;;;17.43;88.90
39443;BME280;25147;52.142;9.960;2023-07-09T02:42:12;100698.06;;;16.45;89.46
39443;BME280;25147;52.142;9.960;2023-07-09T02:45:30;100618.59;;;16.01;90.11
39443;BME280;25147;52.142;9.960;2023-07-09T02:48:17;100925.03;;;17.80;89.43
39443;BME280;25147;52.142;9.960;2023-07-09T02:51:01;100762.63;;;16.88;89.62
39443;BME280;25147;52.142;9.960;2023-07-09T02:53:40;100702.03;;;16.32;89.54
39443;BME280;25147;52.142;9.960;2023-07-09T02:56:21;100664.44;;;16.00;89.62
39443;BME280;25147;52.142;9.960;2023-07-09T02:59:04;100918.78;;;17.59;89.92
39443;BME280;25147;52.142;9.960;2023-07-09T03:01:44;100914.56;;;17.53;90.07
39443;BME280;25147;52.142;9.960;2023-07-09T03:05:08;100772.16;;;16.42;90.77
39443;BME280;25147;52.142;9.960;2023-07-09T03:07:30;100848.06;;;16.90;91.69
39443;BME280;25147;52.142;9.960;2023-07-09T03:10:11;100687.13;;;15.79;91.94
39443;BME280;25147;52.142;9.960;2023-07-09T03:12:58;100633.63;;;15.47;92.14
39443;BME280;25147;52.142;9.960;2023-07-09T03:15:43;100753.59;;;16.18;92.53
39443;BME280;25147;52.142;9.960;2023-07-09T03:18:27;100821.84;;;16.57;93.00
39443;BME280;25147;52.142;9.960;2023-07-09T03:21:05;100743.53;;;16.03;92.60
39443;BME280;25147;52.142;9.960;2023-07-09T03:24:53;100957.31;;;17.17;92.58
39443;BME280;25147;52.142;9.960;2023-07-09T03:27:00;100861.88;;;16.72;92.51
39443;BME280;25147;52.142;9.960;2023-07-09T03:33:05;100748.00;;;16.01;91.83
39443;BME280;25147;52.142;9.960;2023-07-09T03:35:58;100841.38;;;16.53;91.67
39443;BME280;25147;52.142;9.960;2023-07-09T03:38:43;100944.25;;;17.13;91.90
39443;BME280;25147;52.142;9.960;2023-07-09T03:41:24;100936.34;;;17.11;91.69
39443;BME280;25147;52.142;9.960;2023-07-09T03:44:09;100851.31;;;16.47;91.81
39443;BME280;25147;52.142;9.960;2023-07-09T03:47:11;100671.84;;;15.34;91.38
39443;BME280;25147;52.142;9.960;2023-07-09T03:49:41;100847.13;;;16.39;91.05
39443;BME280;25147;52.142;9.960;2023-07-09T03:52:28;100639.97;;;15.13;90.44
39443;BME280;25147;52.142;9.960;2023-07-09T03:55:31;100967.28;;;17.09;90.67
39443;BME280;25147;52.142;9.960;2023-07-09T04:01:11;100795.38;;;16.05;91.08
39443;BME280;25147;52.142;9.960;2023-07-09T04:06:46;100769.88;;;16.06;89.23
39443;BME280;25147;52.142;9.960;2023-07-09T04:09:59;100716.78;;;15.59;89.20
39443;BME280;25147;52.142;9.960;2023-07-09T04:12:43;100844.06;;;16.52;89.04
39443;BME280;25147;52.142;9.960;2023-07-09T04:18:43;100701.03;;;15.57;88.21
39443;BME280;25147;52.142;9.960;2023-07-09T04:21:26;100672.72;;;15.61;88.15
39443;BME280;25147;52.142;9.960;2023-07-09T04:24:07;100923.03;;;17.14;88.40
39443;BME280;25147;52.142;9.960;2023-07-09T04:26:43;100957.63;;;17.33;88.42
39443;BME280;25147;52.142;9.960;2023-07-09T04:29:39;100631.03;;;15.45;88.45
39443;BME280;25147;52.142;9.960;2023-07-09T04:32:36;100864.69;;;16.94;87.86
39443;BME280;25147;52.142;9.960;2023-07-09T04:35:15;100968.59;;;17.48;87.69
39443;BME280;25147;52.142;9.960;2023-07-09T04:38:01;100954.38;;;17.50;87.59
39443;BME280;25147;52.142;9.960;2023-07-09T04:42:59;100860.34;;;16.91;87.40
39443;BME280;25147;52.142;9.960;2023-07-09T04:48:10;100825.91;;;16.93;87.08
39443;BME280;25147;52.142;9.960;2023-07-09T04:51:16;100836.34;;;17.21;86.84
39443;BME280;25147;52.142;9.960;2023-07-09T04:54:01;100844.41;;;17.41;84.85
39443;BME280;25147;52.142;9.960;2023-07-09T04:59:27;100969.66;;;18.38;83.06
39443;BME280;25147;52.142;9.960;2023-07-09T05:02:01;100750.63;;;17.25;82.50
39443;BME280;25147;52.142;9.960;2023-07-09T05:04:39;100944.28;;;18.53;82.47
39443;BME280;25147;52.142;9.960;2023-07-09T05:07:18;100687.66;;;17.11;82.02
39443;BME280;25147;52.142;9.960;2023-07-09T05:09:45;100850.22;;;18.19;82.56
39443;BME280;25147;52.142;9.960;2023-07-09T05:12:15;100859.53;;;18.29;81.47
39443;BME280;25147;52.142;9.960;2023-07-09T05:14:46;100858.47;;;18.33;81.20
39443;BME280;25147;52.142;9.960;2023-07-09T05:17:18;100945.06;;;18.77;81.03
39443;BME280;25147;52.142;9.960;2023-07-09T05:19:55;100678.44;;;17.21;81.14
39443;BME280;25147;52.142;9.960;2023-07-09T05:22:35;100791.75;;;17.79;80.76
39443;BME280;25147;52.142;9.960;2023-07-09T05:25:44;100682.75;;;17.02;81.91
39443;BME280;25147;52.142;9.960;2023-07-09T05:28:21;100665.38;;;16.95;82.96
39443;BME280;25147;52.142;9.960;2023-07-09T05:31:04;100729.19;;;17.33;83.79
39443;BME280;25147;52.142;9.960;2023-07-09T05:33:42;100854.22;;;18.07;84.29
39443;BME280;25147;52.142;9.960;2023-07-09T05:36:29;100744.44;;;17.48;84.44
39443;BME280;25147;52.142;9.960;2023-07-09T05:39:02;100786.84;;;17.69;84.84
39443;BME280;25147;52.142;9.960;2023-07-09T05:42:03;100824.78;;;17.93;85.44
39443;BME280;25147;52.142;9.960;2023-07-09T05:44:36;100675.84;;;16.98;86.12
39443;BME280;25147;52.142;9.960;2023-07-09T05:47:23;100873.41;;;18.14;86.98
39443;BME280;25147;52.142;9.960;2023-07-09T05:50:05;100990.06;;;18.80;86.47
39443;BME280;25147;52.142;9.960;2023-07-09T05:52:37;100891.03;;;18.37;86.81
39443;BME280;25147;52.142;9.960;2023-07-09T05:55:30;101001.47;;;18.82;86.98
39443;BME280;25147;52.142;9.960;2023-07-09T05:58:01;100719.34;;;17.36;86.91
39443;BME280;25147;52.142;9.960;2023-07-09T06:00:39;100672.69;;;17.12;86.81
39443;BME280;25147;52.142;9.960;2023-07-09T06:03:28;100669.38;;;17.05;87.05
39443;BME280;25147;52.142;9.960;2023-07-09T06:06:25;100997.31;;;18.97;87.69
39443;BME280;25147;52.142;9.960;2023-07-09T06:09:13;100799.88;;;17.97;87.30
39443;BME280;25147;52.142;9.960;2023-07-09T06:11:46;100697.13;;;17.40;87.38
39443;BME280;25147;52.142;9.960;2023-07-09T06:14:39;100978.81;;;19.16;88.15
39443;BME280;25147;52.142;9.960;2023-07-09T06:17:30;100888.47;;;18.56;87.78
39443;BME280;25147;52.142;9.960;2023-07-09T06:20:12;100850.47;;;18.55;88.02
39443;BME280;25147;52.142;9.960;2023-07-09T06:24:05;100714.34;;;17.73;88.15
39443;BME280;25147;52.142;9.960;2023-07-09T06:26:23;100723.66;;;17.83;88.67
39443;BME280;25147;52.142;9.960;2023-07-09T06:29:02;100745.06;;;17.99;89.35
39443;BME280;25147;52.142;9.960;2023-07-09T06:31:59;100977.06;;;19.56;89.71
39443;BME280;25147;52.142;9.960;2023-07-09T06:34:36;100714.00;;;18.02;90.04
39443;BME280;25147;52.142;9.960;2023-07-09T06:37:07;100984.47;;;19.68;89.85
39443;BME280;25147;52.142;9.960;2023-07-09T06:39:51;100986.91;;;19.74;89.79
39443;BME280;25147;52.142;9.960;2023-07-09T06:42:45;100978.50;;;19.83;89.28
39443;BME280;25147;52.142;9.960;2023-07-09T06:45:32;100879.91;;;19.31;89.27
39443;BME280;25147;52.142;9.960;2023-07-09T06:48:12;100894.94;;;19.51;88.88
39443;BME280;25147;52.142;9.960;2023-07-09T06:50:56;100705.50;;;18.35;88.63
39443;BME280;25147;52.142;9.960;2023-07-09T06:53:40;100658.06;;;18.29;89.18
39443;BME280;25147;52.142;9.960;2023-07-09T06:56:17;100700.84;;;18.61;88.64
39443;BME280;25147;52.142;9.960;2023-07-09T06:59:09;100791.88;;;19.21;88.54
39443;BME280;25147;52.142;9.960;2023-07-09T07:01:46;100756.84;;;18.94;89.03
39443;BME280;25147;52.142;9.960;2023-07-09T07:04:30;100994.88;;;20.50;88.68
39443;BME280;25147;52.142;9.960;2023-07-09T07:07:15;100994.44;;;20.59;88.34
39443;BME280;25147;52.142;9.960;2023-07-09T07:10:03;100989.59;;;20.68;87.98
39443;BME280;25147;52.142;9.960;2023-07-09T07:12:41;100946.63;;;20.58;86.48
39443;BME280;25147;52.142;9.960;2023-07-09T07:15:11;100965.03;;;20.80;85.53
39443;BME280;25147;52.142;9.960;2023-07-09T07:17:38;100982.06;;;20.95;84.19
39443;BME280;25147;52.142;9.960;2023-07-09T07:23:03;100968.59;;;21.15;82.45
39443;BME280;25147;52.142;9.960;2023-07-09T07:25:52;100838.25;;;20.44;80.98
39443;BME280;25147;52.142;9.960;2023-07-09T07:28:39;100992.38;;;21.36;80.62
39443;BME280;25147;52.142;9.960;2023-07-09T07:31:56;100690.00;;;19.60;78.64
39443;BME280;25147;52.142;9.960;2023-07-09T07:34:29;100868.31;;;20.81;76.03
39443;BME280;25147;52.142;9.960;2023-07-09T07:37:37;100712.03;;;19.99;73.57
39443;BME280;25147;52.142;9.960;2023-07-09T07:40:05;100925.44;;;21.43;72.56
39443;BME280;25147;52.142;9.960;2023-07-09T07:42:46;100882.03;;;21.24;71.36
39443;BME280;25147;52.142;9.960;2023-07-09T07:45:18;100699.72;;;20.31;70.27
39443;BME280;25147;52.142;9.960;2023-07-09T07:48:03;100865.78;;;21.46;69.58
39443;BME280;25147;52.142;9.960;2023-07-09T07:50:48;101001.97;;;22.22;69.30
39443;BME280;25147;52.142;9.960;2023-07-09T07:53:53;100977.22;;;22.36;68.63
39443;BME280;25147;52.142;9.960;2023-07-09T07:57:01;100979.19;;;22.49;66.60
39443;BME280;25147;52.142;9.960;2023-07-09T08:00:57;100979.19;;;22.64;65.93
39443;BME280;25147;52.142;9.960;2023-07-09T08:03:10;100799.97;;;21.80;65.46
39443;BME280;25147;52.142;9.960;2023-07-09T08:06:03;100749.06;;;21.53;64.62
39443;BME280;25147;52.142;9.960;2023-07-09T08:11:40;100846.16;;;22.27;63.17
39443;BME280;25147;52.142;9.960;2023-07-09T08:14:11;100676.34;;;21.35;62.79
39443;BME280;25147;52.142;9.960;2023-07-09T08:17:00;100882.44;;;22.75;63.67
39443;BME280;25147;52.142;9.960;2023-07-09T08:23:39;100993.75;;;23.50;62.90
39443;BME280;25147;52.142;9.960;2023-07-09T08:26:15;100715.88;;;22.04;62.52
39443;BME280;25147;52.142;9.960;2023-07-09T08:35:13;100713.91;;;22.22;61.90
39443;BME280;25147;52.142;9.960;2023-07-09T08:38:28;100984.13;;;23.90;61.75
39443;BME280;25147;52.142;9.960;2023-07-09T08:45:10;100857.81;;;23.58;61.64
39443;BME280;25147;52.142;9.960;2023-07-09T08:49:02;100978.13;;;24.28;61.12
39443;BME280;25147;52.142;9.960;2023-07-09T08:55:02;100700.25;;;22.86;60.09
39443;BME280;25147;52.142;9.960;2023-07-09T08:58:02;100948.44;;;24.60;59.36
39443;BME280;25147;52.142;9.960;2023-07-09T09:00:55;100953.59;;;24.63;59.47
39443;BME280;25147;52.142;9.960;2023-07-09T09:03:35;100957.22;;;24.62;59.00
39443;BME280;25147;52.142;9.960;2023-07-09T09:06:12;100763.53;;;23.69;58.13
39443;BME280;25147;52.142;9.960;2023-07-09T09:09:12;100889.75;;;24.57;58.24
39443;BME280;25147;52.142;9.960;2023-07-09T09:11:48;100870.03;;;24.58;57.46
39443;BME280;25147;52.142;9.960;2023-07-09T09:14:51;100860.78;;;24.49;57.43
39443;BME280;25147;52.142;9.960;2023-07-09T09:17:28;100868.78;;;24.76;57.67
39443;BME280;25147;52.142;9.960;2023-07-09T09:20:19;100722.16;;;23.89;57.63
39443;BME280;25147;52.142;9.960;2023-07-09T09:23:13;100802.34;;;24.56;57.56
39443;BME280;25147;52.142;9.960;2023-07-09T09:29:31;100743.63;;;24.40;56.51
39443;BME280;25147;52.142;9.960;2023-07-09T09:32:26;100704.44;;;24.26;56.46
39443;BME280;25147;52.142;9.960;2023-07-09T09:39:01;100953.81;;;25.90;55.88
39443;BME280;25147;52.142;9.960;2023-07-09T09:46:18;100710.81;;;24.51;56.05
39443;BME280;25147;52.142;9.960;2023-07-09T09:49:18;100975.53;;;26.11;55.40
39443;BME280;25147;52.142;9.960;2023-07-09T09:52:13;100879.38;;;25.68;55.55
39443;BME280;25147;52.142;9.960;2023-07-09T09:55:14;100706.28;;;24.77;54.74
39443;BME280;25147;52.142;9.960;2023-07-09T09:57:58;100967.13;;;26.28;54.57
39443;BME280;25147;52.142;9.960;2023-07-09T10:01:11;100953.81;;;26.27;54.64
39443;BME280;25147;52.142;9.960;2023-07-09T10:04:36;100735.31;;;24.96;52.42
39443;BME280;25147;52.142;9.960;2023-07-09T10:07:14;100810.44;;;25.57;51.75
39443;BME280;25147;52.142;9.960;2023-07-09T10:30:35;100947.16;;;27.27;49.00
39443;BME280;25147;52.142;9.960;2023-07-09T10:48:48;100689.78;;;26.28;45.80
39443;BME280;25147;52.142;9.960;2023-07-09T10:51:43;100699.19;;;26.45;45.33
39443;BME280;25147;52.142;9.960;2023-07-09T10:55:13;100732.22;;;26.69;45.41
39443;BME280;25147;52.142;9.960;2023-07-09T10:57:56;100754.06;;;26.98;45.52
39443;BME280;25147;52.142;9.960;2023-07-09T11:00:40;100847.03;;;27.57;44.99
39443;BME280;25147;52.142;9.960;2023-07-09T11:07:47;100677.50;;;26.70;44.90
39443;BME280;25147;52.142;9.960;2023-07-09T11:15:09;100838.47;;;27.75;45.35
39443;BME280;25147;52.142;9.960;2023-07-09T11:21:03;100699.34;;;26.88;44.30
39443;BME280;25147;52.142;9.960;2023-07-09T11:28:01;100671.50;;;26.89;42.47
39443;BME280;25147;52.142;9.960;2023-07-09T11:31:19;100918.13;;;28.65;42.47
39443;BME280;25147;52.142;9.960;2023-07-09T11:34:19;100794.25;;;28.00;41.90
39443;BME280;25147;52.142;9.960;2023-07-09T11:40:06;100926.22;;;28.86;41.03
39443;BME280;25147;52.142;9.960;2023-07-09T11:42:55;100908.94;;;28.88;41.97
39443;BME280;25147;52.142;9.960;2023-07-09T11:45:31;100840.69;;;28.46;42.59
39443;BME280;25147;52.142;9.960;2023-07-09T11:48:29;100795.34;;;28.30;41.50
39443;BME280;25147;52.142;9.960;2023-07-09T11:51:13;100928.31;;;29.03;41.42
39443;BME280;25147;52.142;9.960;2023-07-09T11:53:53;100610.56;;;27.33;41.01
39443;BME280;25147;52.142;9.960;2023-07-09T11:57:13;100905.38;;;29.09;41.09
39443;BME280;25147;52.142;9.960;2023-07-09T12:00:12;100903.16;;;29.14;41.15
39443;BME280;25147;52.142;9.960;2023-07-09T12:02:50;100809.50;;;28.64;41.56
39443;BME280;25147;52.142;9.960;2023-07-09T12:05:55;100671.72;;;27.85;41.32
39443;BME280;25147;52.142;9.960;2023-07-09T12:08:36;100840.69;;;28.88;41.47
39443;BME280;25147;52.142;9.960;2023-07-09T12:11:23;100755.75;;;28.41;41.37
39443;BME280;25147;52.142;9.960;2023-07-09T12:15:34;100912.19;;;29.34;40.78
39443;BME280;25147;52.142;9.960;2023-07-09T12:31:17;100789.41;;;28.99;41.08
39443;BME280;25147;52.142;9.960;2023-07-09T12:34:30;100615.63;;;28.01;40.85
39443;BME280;25147;52.142;9.960;2023-07-09T12:37:50;100664.78;;;28.24;40.81
39443;BME280;25147;52.142;9.960;2023-07-09T12:41:17;100645.84;;;28.35;39.52
39443;BME280;25147;52.142;9.960;2023-07-09T12:44:31;100706.56;;;28.70;39.96
39443;BME280;25147;52.142;9.960;2023-07-09T12:48:00;100780.88;;;29.34;39.69
39443;BME280;25147;52.142;9.960;2023-07-09T12:54:18;100654.50;;;28.60;39.52
39443;BME280;25147;52.142;9.960;2023-07-09T12:57:18;100775.09;;;29.49;39.47
39443;BME280;25147;52.142;9.960;2023-07-09T13:00:00;100829.81;;;29.70;39.87
39443;BME280;25147;52.142;9.960;2023-07-09T13:02:41;100854.47;;;29.96;39.18
39443;BME280;25147;52.142;9.960;2023-07-09T13:05:29;100861.84;;;30.04;39.14
39443;BME280;25147;52.142;9.960;2023-07-09T13:08:13;100759.22;;;29.55;39.84
39443;BME280;25147;52.142;9.960;2023-07-09T13:38:49;100614.03;;;29.10;40.16
39443;BME280;25147;52.142;9.960;2023-07-09T13:41:42;100813.28;;;30.43;39.94
39443;BME280;25147;52.142;9.960;2023-07-09T13:47:45;100756.09;;;30.28;39.86
39443;BME280;25147;52.142;9.960;2023-07-09T13:50:15;100537.09;;;29.06;39.48
39443;BME280;25147;52.142;9.960;2023-07-09T13:52:57;100736.34;;;30.28;39.57
39443;BME280;25147;52.142;9.960;2023-07-09T13:59:28;100691.03;;;30.12;40.04
39443;BME280;25147;52.142;9.960;2023-07-09T14:02:22;100536.00;;;29.18;39.90
39443;BME280;25147;52.142;9.960;2023-07-09T14:05:25;100555.31;;;29.33;39.97
39443;BME280;25147;52.142;9.960;2023-07-09T14:08:48;100571.50;;;29.33;40.59
39443;BME280;25147;52.142;9.960;2023-07-09T14:11:32;100687.03;;;30.06;39.96
39443;BME280;25147;52.142;9.960;2023-07-09T14:17:31;100531.03;;;28.94;38.91
39443;BME280;25147;52.142;9.960;2023-07-09T14:30:05;100755.19;;;30.67;40.84
39443;BME280;25147;52.142;9.960;2023-07-09T14:33:21;100572.88;;;29.57;40.28
39443;BME280;25147;52.142;9.960;2023-07-09T14:36:31;100781.06;;;30.69;40.13
39443;BME280;25147;52.142;9.960;2023-07-09T14:39:00;100579.88;;;29.50;39.36
39443;BME280;25147;52.142;9.960;2023-07-09T14:41:57;100762.25;;;30.77;39.51
39443;BME280;25147;52.142;9.960;2023-07-09T14:45:37;100527.78;;;29.30;39.60
39443;BME280;25147;52.142;9.960;2023-07-09T14:49:08;100509.16;;;29.36;39.55
39443;BME280;25147;52.142;9.960;2023-07-09T14:51:42;100661.03;;;30.25;39.58
39443;BME280;25147;52.142;9.960;2023-07-09T14:54:56;100536.25;;;29.54;40.08
39443;BME280;25147;52.142;9.960;2023-07-09T15:02:01;100535.81;;;29.59;38.38
39443;BME280;25147;52.142;9.960;2023-07-09T15:04:49;100733.03;;;31.01;38.36
39443;BME280;25147;52.142;9.960;2023-07-09T15:10:59;100630.28;;;30.63;38.21
39443;BME280;25147;52.142;9.960;2023-07-09T15:13:35;100460.69;;;29.74;38.46
39443;BME280;25147;52.142;9.960;2023-07-09T15:16:05;100578.56;;;30.58;38.13
39443;BME280;25147;52.142;9.960;2023-07-09T15:25:25;100471.16;;;30.60;37.97
39443;BME280;25147;52.142;9.960;2023-07-09T15:29:34;100629.06;;;32.45;36.55
39443;BME280;25147;52.142;9.960;2023-07-09T15:32:25;100712.56;;;33.77;34.84
39443;BME280;25147;52.142;9.960;2023-07-09T15:36:48;100509.09;;;33.18;33.79
39443;BME280;25147;52.142;9.960;2023-07-09T15:39:41;100600.03;;;34.44;33.11
39443;BME280;25147;52.142;9.960;2023-07-09T15:42:49;100624.09;;;35.26;32.69
39443;BME280;25147;52.142;9.960;2023-07-09T15:45:18;100670.38;;;35.95;31.75
39443;BME280;25147;52.142;9.960;2023-07-09T15:47:54;100631.91;;;35.90;30.84
39443;BME280;25147;52.142;9.960;2023-07-09T15:50:27;100576.66;;;35.67;30.53
39443;BME280;25147;52.142;9.960;2023-07-09T15:53:17;100694.31;;;36.38;30.45
39443;BME280;25147;52.142;9.960;2023-07-09T15:56:04;100708.88;;;36.15;30.38
39443;BME280;25147;52.142;9.960;2023-07-09T15:58:59;100545.50;;;34.77;30.46
39443;BME280;25147;52.142;9.960;2023-07-09T16:01:30;100511.03;;;34.38;30.79
39443;BME280;25147;52.142;9.960;2023-07-09T16:07:06;100615.88;;;34.32;31.69
39443;BME280;25147;52.142;9.960;2023-07-09T16:09:45;100616.13;;;33.90;32.00
39443;BME280;25147;52.142;9.960;2023-07-09T16:12:24;100518.22;;;32.93;32.18
39443;BME280;25147;52.142;9.960;2023-07-09T16:16:30;100498.13;;;32.53;33.07
39443;BME280;25147;52.142;9.960;2023-07-09T16:22:18;100630.44;;;32.49;34.12
39443;BME280;25147;52.142;9.960;2023-07-09T16:25:23;100710.00;;;32.66;34.75
39443;BME280;25147;52.142;9.960;2023-07-09T16:31:28;100560.59;;;31.38;36.25
39443;BME280;25147;52.142;9.960;2023-07-09T16:34:42;100707.22;;;32.06;36.99
39443;BME280;25147;52.142;9.960;2023-07-09T16:38:14;100626.16;;;31.32;38.51
39443;BME280;25147;52.142;9.960;2023-07-09T16:41:15;100728.28;;;31.58;39.32
39443;BME280;25147;52.142;9.960;2023-07-09T16:44:12;100566.97;;;30.48;40.44
39443;BME280;25147;52.142;9.960;2023-07-09T16:47:39;100524.53;;;29.93;40.15
39443;BME280;25147;52.142;9.960;2023-07-09T16:50:15;100725.50;;;30.94;40.36
39443;BME280;25147;52.142;9.960;2023-07-09T16:53:10;100502.03;;;29.55;40.72
39443;BME280;25147;52.142;9.960;2023-07-09T16:56:13;100601.09;;;30.02;41.02
39443;BME280;25147;52.142;9.960;2023-07-09T16:59:25;100638.31;;;30.08;42.14
39443;BME280;25147;52.142;9.960;2023-07-09T17:05:29;100650.28;;;29.86;42.27
39443;BME280;25147;52.142;9.960;2023-07-09T17:08:19;100645.16;;;29.63;43.21
39443;BME280;25147;52.142;9.960;2023-07-09T17:11:01;100513.25;;;28.53;43.15
39443;BME280;25147;52.142;9.960;2023-07-09T17:13:43;100484.97;;;28.47;43.43
39443;BME280;25147;52.142;9.960;2023-07-09T17:20:38;100612.06;;;29.03;44.83
39443;BME280;25147;52.142;9.960;2023-07-09T17:23:11;100700.41;;;29.39;45.08
39443;BME280;25147;52.142;9.960;2023-07-09T17:25:47;100562.56;;;28.53;45.49
39443;BME280;25147;52.142;9.960;2023-07-09T17:28:37;100449.34;;;27.84;45.76
39443;BME280;25147;52.142;9.960;2023-07-09T17:31:19;100438.97;;;27.69;45.76
39443;BME280;25147;52.142;9.960;2023-07-09T17:34:14;100521.47;;;28.20;45.80
39443;BME280;25147;52.142;9.960;2023-07-09T18:50:59;100561.72;;;25.60;71.13
39443;BME280;25147;52.142;9.960;2023-07-09T18:53:51;100765.81;;;26.28;73.47
39443;BME280;25147;52.142;9.960;2023-07-09T18:56:24;100683.59;;;25.68;70.27
39443;BME280;25147;52.142;9.960;2023-07-09T18:59:16;100718.72;;;25.65;67.43
39443;BME280;25147;52.142;9.960;2023-07-09T19:01:44;100703.13;;;25.70;64.36
39443;BME280;25147;52.142;9.960;2023-07-09T19:04:18;100628.59;;;25.27;64.00
39443;BME280;25147;52.142;9.960;2023-07-09T19:07:12;100600.84;;;24.91;63.50
39443;BME280;25147;52.142;9.960;2023-07-09T19:09:45;100810.41;;;26.18;63.50
39443;BME280;25147;52.142;9.960;2023-07-09T19:12:25;100646.94;;;25.20;62.82
39443;BME280;25147;52.142;9.960;2023-07-09T19:15:14;100563.44;;;24.65;62.87
39443;BME280;25147;52.142;9.960;2023-07-09T19:17:45;100621.31;;;24.92;62.66
39443;BME280;25147;52.142;9.960;2023-07-09T19:20:22;100721.69;;;25.36;62.73
39443;BME280;25147;52.142;9.960;2023-07-09T19:23:05;100580.19;;;24.43;62.98
39443;BME280;25147;52.142;9.960;2023-07-09T19:25:39;100770.28;;;25.31;63.34
39443;BME280;25147;52.142;9.960;2023-07-09T19:28:15;100776.75;;;25.16;63.68
39443;BME280;25147;52.142;9.960;2023-07-09T19:30:48;100780.81;;;25.09;64.06
39443;BME280;25147;52.142;9.960;2023-07-09T19:33:33;100732.09;;;24.52;64.73
39443;BME280;25147;52.142;9.960;2023-07-09T19:36:24;100640.66;;;23.94;65.47
39443;BME280;25147;52.142;9.960;2023-07-09T19:39:26;100617.25;;;23.71;66.44
39443;BME280;25147;52.142;9.960;2023-07-09T19:42:06;100861.50;;;25.17;68.32
39443;BME280;25147;52.142;9.960;2023-07-09T19:44:38;100788.84;;;24.45;68.84
39443;BME280;25147;52.142;9.960;2023-07-09T19:47:11;100655.41;;;23.47;70.13
39443;BME280;25147;52.142;9.960;2023-07-09T19:49:52;100657.38;;;23.31;71.41
39443;BME280;25147;52.142;9.960;2023-07-09T19:52:46;100614.44;;;22.92;72.11
39443;BME280;25147;52.142;9.960;2023-07-09T19:55:29;100678.56;;;23.19;72.99
39443;BME280;25147;52.142;9.960;2023-07-09T19:58:02;100883.56;;;24.42;74.06
39443;BME280;25147;52.142;9.960;2023-07-09T20:00:58;100614.75;;;22.59;74.88
39443;BME280;25147;52.142;9.960;2023-07-09T20:03:44;100789.16;;;23.58;75.75
39443;BME280;25147;52.142;9.960;2023-07-09T20:06:15;100654.63;;;22.62;77.19
39443;BME280;25147;52.142;9.960;2023-07-09T20:09:02;100793.78;;;23.42;78.64
39443;BME280;25147;52.142;9.960;2023-07-09T20:11:50;100897.97;;;23.85;81.34
39443;BME280;25147;52.142;9.960;2023-07-09T20:14:26;100748.31;;;22.72;83.62
39443;BME280;25147;52.142;9.960;2023-07-09T20:16:57;100798.56;;;22.94;85.90
39443;BME280;25147;52.142;9.960;2023-07-09T20:19:30;100668.75;;;22.05;88.21